Terminal Aerodrome Forecast
Issued by NWS Lake Charles, LA

Home | Current Version | Previous Version | Text Only | Print | Product List | Glossary On
Versions: 1 2 3 4 5 6 7 8 9 10 11 12 13 14 15 16 17 18 19 20 21 22 23 24
000
FTUS44 KLCH 221738
TAFBPT
TAF
KBPT 221738Z 2218/2318 13011KT P6SM -RA SCT015 OVC040
     FM222000 14011KT P6SM VCSH SCT025 OVC050
      TEMPO 2221/2224 2SM +TSRA BKN012CB OVC025
     FM230200 20010KT 6SM BR VCSH OVC015
     FM230800 32008KT P6SM VCSH OVC012
     FM231500 36008KT P6SM OVC015=

USA.gov is the U.S. government's official web portal to all federal, state and local government web resources and services.